createdAt,value
2017-12-23T00:00:38.331Z,0
2017-12-23T00:01:38.991Z,0
2017-12-23T00:02:39.651Z,0
2017-12-23T00:03:40.311Z,0
2017-12-23T00:04:40.973Z,0
2017-12-23T00:05:41.632Z,0
2017-12-23T00:06:42.291Z,0
2017-12-23T00:07:42.953Z,0
2017-12-23T00:08:43.613Z,0
2017-12-23T00:09:44.273Z,0
2017-12-23T00:10:44.933Z,0
2017-12-23T00:11:45.594Z,0
2017-12-23T00:12:46.254Z,0
2017-12-23T00:13:46.914Z,0
2017-12-23T00:14:47.574Z,0
2017-12-23T00:15:48.237Z,0
2017-12-23T00:16:48.870Z,0
2017-12-23T00:17:49.534Z,0
2017-12-23T00:18:50.228Z,0
2017-12-23T00:19:50.890Z,0
2017-12-23T00:20:51.552Z,0
2017-12-23T00:21:52.213Z,0
2017-12-23T00:22:52.923Z,0
2017-12-23T00:23:53.583Z,0
2017-12-23T00:24:54.245Z,0
2017-12-23T00:25:54.904Z,0
2017-12-23T00:26:55.564Z,0
2017-12-23T00:27:56.225Z,0
2017-12-23T00:28:56.886Z,0
2017-12-23T00:29:57.546Z,0
2017-12-23T00:30:58.205Z,0
2017-12-23T00:31:58.864Z,0
2017-12-23T00:32:59.575Z,0
2017-12-23T00:34:00.236Z,0
2017-12-23T00:35:00.898Z,0
2017-12-23T00:36:01.560Z,0
2017-12-23T00:37:02.220Z,0
2017-12-23T00:38:02.884Z,0
2017-12-23T00:39:03.544Z,0
2017-12-23T00:40:04.205Z,0
2017-12-23T00:41:04.867Z,0
2017-12-23T00:42:05.528Z,0
2017-12-23T00:43:06.190Z,0
2017-12-23T00:44:06.849Z,0
2017-12-23T00:45:07.510Z,0
2017-12-23T00:46:08.172Z,0
2017-12-23T00:47:08.835Z,0
2017-12-23T00:48:09.496Z,0
2017-12-23T00:49:10.157Z,0
2017-12-23T00:50:10.818Z,0
2017-12-23T00:51:11.480Z,0
2017-12-23T00:52:12.139Z,0
2017-12-23T00:53:12.800Z,0
2017-12-23T00:54:13.460Z,0
2017-12-23T00:55:14.122Z,0
2017-12-23T00:56:14.783Z,0
2017-12-23T00:57:15.443Z,0
2017-12-23T00:58:16.104Z,0
2017-12-23T00:59:16.765Z,0
2017-12-23T01:00:17.427Z,0
2017-12-23T01:01:18.086Z,0
2017-12-23T01:02:18.747Z,0
2017-12-23T01:03:19.409Z,0
2017-12-23T01:04:20.070Z,0
2017-12-23T01:05:20.730Z,0
2017-12-23T01:06:21.392Z,0
2017-12-23T01:07:22.052Z,0
2017-12-23T01:08:22.715Z,0
2017-12-23T01:09:23.372Z,0
2017-12-23T01:10:24.034Z,0
2017-12-23T01:11:24.692Z,0
2017-12-23T01:12:25.361Z,0
2017-12-23T01:13:26.065Z,0
2017-12-23T01:14:26.730Z,0
2017-12-23T01:15:27.385Z,0
2017-12-23T01:16:28.047Z,0
2017-12-23T01:17:28.707Z,0
2017-12-23T01:18:29.416Z,0
2017-12-23T01:19:30.077Z,0
2017-12-23T01:20:30.738Z,0
2017-12-23T01:21:31.399Z,0
2017-12-23T01:22:32.059Z,0
2017-12-23T01:23:32.720Z,0
2017-12-23T01:24:33.380Z,0
2017-12-23T01:25:34.076Z,0
2017-12-23T01:26:34.736Z,0
2017-12-23T01:27:35.396Z,0
2017-12-23T01:28:36.056Z,0
2017-12-23T01:29:36.715Z,0
2017-12-23T01:30:37.374Z,0
2017-12-23T01:31:38.033Z,0
2017-12-23T01:32:38.694Z,0
2017-12-23T01:33:39.353Z,0
2017-12-23T01:34:40.015Z,0
2017-12-23T01:35:40.675Z,0
2017-12-23T01:36:41.336Z,0
2017-12-23T01:37:41.996Z,0
2017-12-23T01:38:42.706Z,0
2017-12-23T01:39:43.366Z,0
2017-12-23T01:40:44.027Z,0
2017-12-23T01:41:44.725Z,0
2017-12-23T01:42:45.384Z,0
2017-12-23T01:43:46.045Z,0
2017-12-23T01:44:46.703Z,0
2017-12-23T01:45:47.362Z,0
2017-12-23T01:46:48.022Z,0
2017-12-23T01:47:48.687Z,0
2017-12-23T01:48:49.343Z,0
2017-12-23T01:49:50.004Z,0
2017-12-23T01:50:50.666Z,0
2017-12-23T01:51:51.324Z,0
2017-12-23T01:52:51.984Z,0
2017-12-23T01:53:52.643Z,0
2017-12-23T01:54:53.304Z,0
2017-12-23T01:55:53.965Z,0
2017-12-23T01:56:54.625Z,0
2017-12-23T01:57:55.286Z,0
2017-12-23T01:58:55.946Z,0
2017-12-23T01:59:56.641Z,0
2017-12-23T02:00:57.303Z,0
2017-12-23T02:01:58.027Z,0
2017-12-23T02:02:58.654Z,0
2017-12-23T02:03:59.363Z,0
2017-12-23T02:05:00.023Z,0
2017-12-23T02:06:00.682Z,0
2017-12-23T02:07:01.341Z,0
2017-12-23T02:08:02.002Z,0
2017-12-23T02:09:02.710Z,0
2017-12-23T02:10:03.372Z,0
2017-12-23T02:11:04.033Z,0
2017-12-23T02:12:04.692Z,0
2017-12-23T02:13:05.354Z,0
2017-12-23T02:14:06.017Z,0
2017-12-23T02:15:06.674Z,0
2017-12-23T02:16:07.334Z,0
2017-12-23T02:17:07.996Z,0
2017-12-23T02:18:08.657Z,0
2017-12-23T02:19:09.368Z,0
2017-12-23T02:20:10.028Z,0
2017-12-23T02:21:10.688Z,0
2017-12-23T02:22:11.346Z,0
2017-12-23T02:23:12.006Z,0
2017-12-23T02:24:12.667Z,0
2017-12-23T02:25:13.327Z,0
2017-12-23T02:26:13.986Z,0
2017-12-23T02:27:14.644Z,0
2017-12-23T02:28:15.302Z,0
2017-12-23T02:29:15.963Z,0
2017-12-23T02:30:16.623Z,0
2017-12-23T02:31:17.281Z,0
2017-12-23T02:32:17.940Z,0
2017-12-23T02:33:18.599Z,0
2017-12-23T02:34:19.260Z,0
2017-12-23T02:35:19.919Z,0
2017-12-23T02:36:20.579Z,0
2017-12-23T02:37:21.237Z,0
2017-12-23T02:38:21.896Z,0
2017-12-23T02:39:22.557Z,0
2017-12-23T02:40:23.218Z,0
2017-12-23T02:41:23.911Z,0
2017-12-23T02:42:24.573Z,0
2017-12-23T02:43:25.233Z,0
2017-12-23T02:44:25.893Z,0
2017-12-23T02:45:26.555Z,0
2017-12-23T02:46:27.215Z,0
2017-12-23T02:47:27.875Z,0
2017-12-23T02:48:28.536Z,0
2017-12-23T02:49:29.196Z,0
2017-12-23T02:50:29.855Z,0
2017-12-23T02:51:30.515Z,0
2017-12-23T02:52:31.177Z,0
2017-12-23T02:53:31.836Z,0
2017-12-23T02:54:32.494Z,0
2017-12-23T02:55:33.155Z,0
2017-12-23T02:56:33.816Z,0
2017-12-23T02:57:34.476Z,0
2017-12-23T02:58:35.135Z,0
2017-12-23T02:59:35.795Z,0
2017-12-23T03:00:36.454Z,0
2017-12-23T03:01:37.115Z,0
2017-12-23T03:02:37.776Z,0
2017-12-23T03:03:38.443Z,0
2017-12-23T03:04:39.094Z,0
2017-12-23T03:05:39.754Z,0
2017-12-23T03:06:40.415Z,0
2017-12-23T03:07:41.075Z,0
2017-12-23T03:08:41.735Z,0
2017-12-23T03:09:42.395Z,0
2017-12-23T03:10:43.055Z,0
2017-12-23T03:11:43.715Z,0
2017-12-23T03:12:44.410Z,0
2017-12-23T03:13:45.069Z,0
2017-12-23T03:14:45.778Z,0
2017-12-23T03:15:46.438Z,0
2017-12-23T03:16:47.098Z,0
2017-12-23T03:17:47.758Z,0
2017-12-23T03:18:48.453Z,0
2017-12-23T03:19:49.113Z,0
2017-12-23T03:20:49.774Z,0
2017-12-23T03:21:50.434Z,0
2017-12-23T03:22:51.094Z,0
2017-12-23T03:23:51.755Z,0
2017-12-23T03:24:52.415Z,0
2017-12-23T03:25:53.076Z,0
2017-12-23T03:26:53.737Z,0
2017-12-23T03:27:54.398Z,0
2017-12-23T03:28:55.057Z,0
2017-12-23T03:29:55.724Z,0
2017-12-23T03:30:56.388Z,0
2017-12-23T03:31:57.038Z,0
2017-12-23T03:32:57.699Z,0
2017-12-23T03:33:58.358Z,0
2017-12-23T03:34:59.019Z,0
2017-12-23T03:35:59.678Z,0
2017-12-23T03:37:00.338Z,0
2017-12-23T03:38:00.996Z,0
2017-12-23T03:39:01.657Z,0
2017-12-23T03:40:02.317Z,0
2017-12-23T03:41:02.977Z,0
2017-12-23T03:42:03.636Z,0
2017-12-23T03:43:04.296Z,0
2017-12-23T03:44:04.956Z,0
2017-12-23T03:45:05.650Z,0
2017-12-23T03:46:06.312Z,0
2017-12-23T03:47:07.007Z,0
2017-12-23T03:48:07.666Z,0
2017-12-23T03:49:08.326Z,0
2017-12-23T03:50:08.986Z,0
2017-12-23T03:51:09.645Z,0
2017-12-23T03:52:10.305Z,0
2017-12-23T03:53:10.963Z,0
2017-12-23T03:54:11.621Z,0
2017-12-23T03:55:12.339Z,0
2017-12-23T03:56:12.991Z,0
2017-12-23T03:57:13.651Z,0
2017-12-23T03:58:14.312Z,0
2017-12-23T03:59:14.976Z,0
2017-12-23T04:00:15.669Z,0
2017-12-23T04:01:16.330Z,0
2017-12-23T04:02:16.989Z,0
2017-12-23T04:03:17.650Z,0
2017-12-23T04:04:18.311Z,0
2017-12-23T04:05:18.969Z,0
2017-12-23T04:06:19.631Z,0
2017-12-23T04:07:20.291Z,0
2017-12-23T04:08:20.951Z,0
2017-12-23T04:09:21.611Z,0
2017-12-23T04:10:22.273Z,0
2017-12-23T04:11:22.930Z,0
2017-12-23T04:12:23.590Z,0
2017-12-23T04:13:24.250Z,0
2017-12-23T04:14:24.909Z,0
2017-12-23T04:15:25.569Z,0
2017-12-23T04:16:26.229Z,0
2017-12-23T04:17:26.887Z,0
2017-12-23T04:18:27.547Z,0
2017-12-23T04:19:28.206Z,0
2017-12-23T04:20:28.865Z,0
2017-12-23T04:21:29.525Z,0
2017-12-23T04:22:30.185Z,0
2017-12-23T04:23:30.842Z,0
2017-12-23T04:24:31.502Z,0
2017-12-23T04:25:32.163Z,0
2017-12-23T04:26:32.821Z,0
2017-12-23T04:27:33.481Z,0
2017-12-23T04:28:34.141Z,0
2017-12-23T04:29:34.801Z,0
2017-12-23T04:30:35.461Z,0
2017-12-23T04:31:36.120Z,0
2017-12-23T04:32:36.780Z,0
2017-12-23T04:33:37.443Z,0
2017-12-23T04:34:38.136Z,0
2017-12-23T04:35:38.796Z,0
2017-12-23T04:36:39.456Z,0
2017-12-23T04:37:40.117Z,0
2017-12-23T04:38:40.779Z,0
2017-12-23T04:39:41.437Z,0
2017-12-23T04:40:42.098Z,0
2017-12-23T04:41:42.758Z,0
2017-12-23T04:42:43.419Z,0
2017-12-23T04:43:44.078Z,0
2017-12-23T04:44:44.738Z,0
2017-12-23T04:45:45.399Z,0
2017-12-23T04:46:46.059Z,0
2017-12-23T04:47:46.718Z,0
2017-12-23T04:48:47.377Z,0
2017-12-23T04:49:48.038Z,0
2017-12-23T04:50:48.699Z,0
2017-12-23T04:51:49.358Z,0
2017-12-23T04:52:50.018Z,0
2017-12-23T04:53:50.677Z,0
2017-12-23T04:54:51.337Z,0
2017-12-23T04:55:51.998Z,0
2017-12-23T04:56:52.658Z,0
2017-12-23T04:57:53.317Z,0
2017-12-23T04:58:53.978Z,0
2017-12-23T04:59:54.639Z,0
2017-12-23T05:00:55.298Z,0
2017-12-23T05:01:55.957Z,0
2017-12-23T05:02:56.618Z,0
2017-12-23T05:03:57.277Z,0
2017-12-23T05:04:58.017Z,0
2017-12-23T05:05:58.612Z,0
2017-12-23T05:06:59.266Z,0
2017-12-23T05:07:59.927Z,0
2017-12-23T05:09:00.586Z,0
2017-12-23T05:10:01.247Z,0
2017-12-23T05:11:01.906Z,0
2017-12-23T05:12:02.567Z,0
2017-12-23T05:13:03.227Z,0
2017-12-23T05:14:03.885Z,0
2017-12-23T05:15:04.546Z,0
2017-12-23T05:16:05.205Z,0
2017-12-23T05:17:05.865Z,0
2017-12-23T05:18:06.525Z,0
2017-12-23T05:19:07.185Z,0
2017-12-23T05:20:07.846Z,0
2017-12-23T05:21:08.522Z,0
2017-12-23T05:22:09.165Z,0
2017-12-23T05:23:09.824Z,0
2017-12-23T05:24:10.485Z,0
2017-12-23T05:25:11.144Z,0
2017-12-23T05:26:11.804Z,0
2017-12-23T05:27:12.464Z,0
2017-12-23T05:28:13.124Z,0
2017-12-23T05:29:13.782Z,0
2017-12-23T05:30:14.444Z,0
2017-12-23T05:31:15.104Z,0
2017-12-23T05:32:15.765Z,0
2017-12-23T05:33:16.424Z,0
2017-12-23T05:34:17.086Z,0
2017-12-23T05:35:17.745Z,0
2017-12-23T05:36:18.403Z,0
2017-12-23T05:37:19.062Z,0
2017-12-23T05:38:19.721Z,0
2017-12-23T05:39:20.380Z,0
2017-12-23T05:40:21.041Z,0
2017-12-23T05:41:21.700Z,0
2017-12-23T05:42:22.359Z,0
2017-12-23T05:43:23.020Z,0
2017-12-23T05:44:23.681Z,0
2017-12-23T05:45:24.340Z,0
2017-12-23T05:46:25.000Z,0
2017-12-23T05:47:25.660Z,0
2017-12-23T05:48:26.319Z,0
2017-12-23T05:49:26.982Z,0
2017-12-23T05:50:27.640Z,0
2017-12-23T05:51:28.301Z,0
2017-12-23T05:52:28.963Z,0
2017-12-23T05:53:29.621Z,0
2017-12-23T05:54:30.281Z,0
2017-12-23T05:55:30.941Z,0
2017-12-23T05:56:31.603Z,0
2017-12-23T05:57:32.262Z,0
2017-12-23T05:58:32.922Z,0
2017-12-23T05:59:33.582Z,0
2017-12-23T06:00:34.240Z,0
2017-12-23T06:01:34.901Z,0
2017-12-23T06:02:35.562Z,0
2017-12-23T06:03:36.221Z,0
2017-12-23T06:04:36.882Z,0
2017-12-23T06:05:37.543Z,0
2017-12-23T06:06:38.202Z,0
2017-12-23T06:07:38.862Z,0
2017-12-23T06:08:39.522Z,0
2017-12-23T06:09:40.183Z,0
2017-12-23T06:10:40.842Z,0
2017-12-23T06:11:41.503Z,0
2017-12-23T06:12:42.162Z,0
2017-12-23T06:13:42.821Z,0
2017-12-23T06:14:43.483Z,0
2017-12-23T06:15:44.142Z,0
2017-12-23T06:16:44.802Z,0
2017-12-23T06:17:45.462Z,0
2017-12-23T06:18:46.122Z,0
2017-12-23T06:19:46.782Z,0
2017-12-23T06:20:47.442Z,0
2017-12-23T06:21:48.103Z,0
2017-12-23T06:22:48.761Z,0
2017-12-23T06:23:49.423Z,0
2017-12-23T06:24:50.082Z,0
2017-12-23T06:25:50.743Z,0
2017-12-23T06:26:51.439Z,0
2017-12-23T06:27:52.063Z,0
2017-12-23T06:28:52.722Z,0
2017-12-23T06:29:53.382Z,0
2017-12-23T06:30:54.042Z,0
2017-12-23T06:31:54.702Z,0
2017-12-23T06:32:55.363Z,0
2017-12-23T06:33:56.024Z,0
2017-12-23T06:34:56.684Z,0
2017-12-23T06:35:57.344Z,0
2017-12-23T06:36:58.003Z,0
2017-12-23T06:37:58.662Z,0
2017-12-23T06:38:59.324Z,0
2017-12-23T06:39:59.984Z,0
2017-12-23T06:41:00.645Z,0
2017-12-23T06:42:01.303Z,0
2017-12-23T06:43:01.964Z,0
2017-12-23T06:44:02.625Z,0
2017-12-23T06:45:03.284Z,0
2017-12-23T06:46:03.944Z,0
2017-12-23T06:47:04.691Z,0
2017-12-23T06:48:05.352Z,4
2017-12-23T06:49:06.010Z,4
2017-12-23T06:50:06.671Z,0
2017-12-23T06:51:07.332Z,4
2017-12-23T06:52:07.991Z,4
2017-12-23T06:53:08.652Z,8
2017-12-23T06:54:09.312Z,4
2017-12-23T06:55:09.972Z,4
2017-12-23T06:56:10.633Z,8
2017-12-23T06:57:11.293Z,8
2017-12-23T06:58:11.954Z,8
2017-12-23T06:59:12.614Z,8
2017-12-23T07:00:13.276Z,12
2017-12-23T07:01:13.937Z,12
2017-12-23T07:02:14.599Z,16
2017-12-23T07:03:15.297Z,20
2017-12-23T07:04:15.957Z,20
2017-12-23T07:05:16.617Z,24
2017-12-23T07:06:17.278Z,32
2017-12-23T07:07:17.938Z,32
2017-12-23T07:08:18.601Z,40
2017-12-23T07:09:19.261Z,48
2017-12-23T07:10:19.922Z,52
2017-12-23T07:11:20.583Z,52
2017-12-23T07:12:21.244Z,56
2017-12-23T07:13:21.905Z,60
2017-12-23T07:14:22.566Z,64
2017-12-23T07:15:23.228Z,76
2017-12-23T07:16:23.888Z,84
2017-12-23T07:17:24.550Z,88
2017-12-23T07:18:25.210Z,92
2017-12-23T07:19:25.874Z,100
2017-12-23T07:20:26.541Z,120
2017-12-23T07:21:27.198Z,148
2017-12-23T07:22:27.861Z,152
2017-12-23T07:23:28.525Z,156
2017-12-23T07:24:29.190Z,160
2017-12-23T07:25:29.852Z,184
2017-12-23T07:26:30.516Z,200
2017-12-23T07:27:31.176Z,224
2017-12-23T07:28:31.839Z,260
2017-12-23T07:29:32.503Z,292
2017-12-23T07:30:33.167Z,324
2017-12-23T07:31:33.831Z,340
2017-12-23T07:32:34.495Z,408
2017-12-23T07:33:35.158Z,452
2017-12-23T07:34:35.822Z,448
2017-12-23T07:35:36.486Z,504
2017-12-23T07:36:37.152Z,544
2017-12-23T07:37:37.820Z,588
2017-12-23T07:38:38.482Z,588
2017-12-23T07:39:39.186Z,620
2017-12-23T07:40:39.809Z,644
2017-12-23T07:41:40.474Z,676
2017-12-23T07:42:41.138Z,720
2017-12-23T07:43:41.802Z,756
2017-12-23T07:44:42.466Z,788
2017-12-23T07:45:43.128Z,816
2017-12-23T07:46:43.792Z,852
2017-12-23T07:47:44.455Z,884
2017-12-23T07:48:45.123Z,912
2017-12-23T07:49:45.789Z,940
2017-12-23T07:50:46.453Z,976
2017-12-23T07:51:47.117Z,1028
2017-12-23T07:52:47.783Z,1068
2017-12-23T07:53:48.483Z,1104
2017-12-23T07:54:49.149Z,1140
2017-12-23T07:55:49.814Z,1176
2017-12-23T07:56:50.478Z,1188
2017-12-23T07:57:51.142Z,1208
2017-12-23T07:58:51.807Z,1228
2017-12-23T07:59:52.474Z,1196
2017-12-23T08:00:53.146Z,1216
2017-12-23T08:01:53.803Z,1216
2017-12-23T08:02:54.767Z,1224
2017-12-23T08:03:55.433Z,1236
2017-12-23T08:04:56.134Z,1248
2017-12-23T08:05:56.801Z,1268
2017-12-23T08:06:57.463Z,1288
2017-12-23T08:07:58.259Z,1304
2017-12-23T08:08:58.847Z,1324
2017-12-23T08:09:59.513Z,1360
2017-12-23T08:11:00.180Z,1384
2017-12-23T08:12:00.877Z,1420
2017-12-23T08:13:01.550Z,1424
2017-12-23T08:14:02.220Z,1460
2017-12-23T08:15:02.908Z,1440
2017-12-23T08:16:03.574Z,1456
2017-12-23T08:17:04.244Z,1464
2017-12-23T08:18:04.948Z,1384
2017-12-23T08:19:05.608Z,1380
2017-12-23T08:20:06.308Z,1384
2017-12-23T08:21:06.974Z,1508
2017-12-23T08:22:07.638Z,1452
2017-12-23T08:23:08.304Z,1416
2017-12-23T08:24:08.970Z,1428
2017-12-23T08:25:09.635Z,1424
2017-12-23T08:26:10.301Z,1428
2017-12-23T08:27:10.966Z,1480
2017-12-23T08:28:11.716Z,1564
2017-12-23T08:29:12.382Z,1552
2017-12-23T08:30:13.049Z,1580
2017-12-23T08:31:13.724Z,1648
2017-12-23T08:32:14.376Z,1672
2017-12-23T08:33:15.044Z,1608
2017-12-23T08:34:15.711Z,1708
2017-12-23T08:35:16.375Z,1628
2017-12-23T08:36:17.060Z,1636
2017-12-23T08:37:17.705Z,1640
2017-12-23T08:38:18.371Z,1672
2017-12-23T08:39:19.037Z,1732
2017-12-23T08:40:19.701Z,1776
2017-12-23T08:41:20.365Z,1800
2017-12-23T08:42:21.033Z,1848
2017-12-23T08:43:21.700Z,1920
2017-12-23T08:44:22.365Z,1924
2017-12-23T08:45:23.029Z,2044
2017-12-23T08:46:23.694Z,2048
2017-12-23T08:47:24.361Z,2144
2017-12-23T08:48:25.026Z,2188
2017-12-23T08:49:25.690Z,2160
2017-12-23T08:50:26.358Z,2164
2017-12-23T08:51:27.022Z,2080
2017-12-23T08:52:27.689Z,2048
2017-12-23T08:53:28.357Z,2056
2017-12-23T08:54:29.022Z,2080
2017-12-23T08:55:29.687Z,1908
2017-12-23T08:56:30.353Z,1688
2017-12-23T08:57:31.018Z,1456
2017-12-23T08:58:31.682Z,1236
2017-12-23T08:59:32.347Z,1212
2017-12-23T09:00:33.012Z,1264
2017-12-23T09:01:33.679Z,1224
2017-12-23T09:02:34.347Z,1260
2017-12-23T09:03:35.012Z,1216
2017-12-23T09:04:35.678Z,1240
2017-12-23T09:05:36.344Z,1220
2017-12-23T09:06:37.012Z,1348
2017-12-23T09:07:37.677Z,1368
2017-12-23T09:08:38.343Z,1412
2017-12-23T09:09:39.009Z,1500
2017-12-23T09:10:39.711Z,1492
2017-12-23T09:11:40.378Z,1564
2017-12-23T09:12:41.046Z,1900
2017-12-23T09:13:41.711Z,2144
2017-12-23T09:14:42.376Z,2176
2017-12-23T09:15:43.043Z,2356
2017-12-23T09:16:43.710Z,2632
2017-12-23T09:17:44.375Z,2792
2017-12-23T09:18:45.041Z,2976
2017-12-23T09:19:45.706Z,2968
2017-12-23T09:20:46.374Z,3048
2017-12-23T09:21:47.045Z,3412
2017-12-23T09:22:47.746Z,3144
2017-12-23T09:23:48.411Z,3092
2017-12-23T09:24:49.076Z,2740
2017-12-23T09:25:49.743Z,2808
2017-12-23T09:26:50.413Z,2388
2017-12-23T09:27:51.078Z,2152
2017-12-23T09:28:51.745Z,2436
2017-12-23T09:29:52.413Z,2432
2017-12-23T09:30:53.122Z,2000
2017-12-23T09:31:53.786Z,1912
2017-12-23T09:32:54.454Z,2144
2017-12-23T09:33:55.120Z,2548
2017-12-23T09:34:55.788Z,2708
2017-12-23T09:35:56.457Z,2168
2017-12-23T09:36:57.123Z,2376
2017-12-23T09:37:57.790Z,2308
2017-12-23T09:38:58.459Z,2420
2017-12-23T09:39:59.127Z,2420
2017-12-23T09:40:59.795Z,2288
2017-12-23T09:42:00.463Z,2220
2017-12-23T09:43:01.135Z,2132
2017-12-23T09:44:01.838Z,1880
2017-12-23T09:45:02.506Z,2000
2017-12-23T09:46:03.206Z,1872
2017-12-23T09:47:03.874Z,2032
2017-12-23T09:48:04.540Z,2040
2017-12-23T09:49:05.210Z,1784
2017-12-23T09:50:05.878Z,1752
2017-12-23T09:51:06.545Z,1784
2017-12-23T09:52:07.213Z,1764
2017-12-23T09:53:07.882Z,1848
2017-12-23T09:54:08.549Z,2012
2017-12-23T09:55:09.216Z,2196
2017-12-23T09:56:09.884Z,1976
2017-12-23T09:57:10.554Z,2152
2017-12-23T09:58:11.221Z,2300
2017-12-23T09:59:11.889Z,1996
2017-12-23T10:00:12.595Z,2196
2017-12-23T10:01:13.260Z,2136
2017-12-23T10:02:13.930Z,1892
2017-12-23T10:03:14.597Z,1856
2017-12-23T10:04:15.263Z,1916
2017-12-23T10:05:15.933Z,1932
2017-12-23T10:06:16.602Z,1804
2017-12-23T10:07:17.277Z,1600
2017-12-23T10:08:17.937Z,1756
2017-12-23T10:09:18.605Z,1656
2017-12-23T10:10:19.272Z,1816
2017-12-23T10:11:19.940Z,2332
2017-12-23T10:12:20.608Z,2940
2017-12-23T10:13:21.279Z,3668
2017-12-23T10:14:21.948Z,3516
2017-12-23T10:15:22.617Z,4068
2017-12-23T10:16:23.286Z,4016
2017-12-23T10:17:23.957Z,4120
2017-12-23T10:18:24.626Z,4084
2017-12-23T10:19:25.297Z,3988
2017-12-23T10:20:25.965Z,3392
2017-12-23T10:21:26.633Z,3328
2017-12-23T10:22:27.302Z,3376
2017-12-23T10:23:27.970Z,3476
2017-12-23T10:24:28.638Z,3572
2017-12-23T10:25:29.307Z,3172
2017-12-23T10:26:29.977Z,2988
2017-12-23T10:27:30.645Z,2996
2017-12-23T10:28:31.315Z,3176
2017-12-23T10:29:31.984Z,3476
2017-12-23T10:30:32.688Z,3276
2017-12-23T10:31:33.354Z,2984
2017-12-23T10:32:34.023Z,2812
2017-12-23T10:33:34.695Z,2396
2017-12-23T10:34:35.362Z,2256
2017-12-23T10:35:36.028Z,2472
2017-12-23T10:36:36.696Z,2332
2017-12-23T10:37:37.367Z,2220
2017-12-23T10:38:38.033Z,2224
2017-12-23T10:39:38.703Z,2204
2017-12-23T10:40:39.372Z,2116
2017-12-23T10:41:40.043Z,1924
2017-12-23T10:42:40.709Z,2124
2017-12-23T10:43:41.385Z,1928
2017-12-23T10:44:42.046Z,1836
2017-12-23T10:45:42.717Z,1776
2017-12-23T10:46:43.418Z,1748
2017-12-23T10:47:44.086Z,1944
2017-12-23T10:48:44.754Z,2352
2017-12-23T10:49:45.421Z,2448
2017-12-23T10:50:46.092Z,2408
2017-12-23T10:51:46.759Z,2688
2017-12-23T10:52:47.427Z,2568
2017-12-23T10:53:48.100Z,2848
2017-12-23T10:54:48.764Z,3116
2017-12-23T10:55:49.435Z,2988
2017-12-23T10:56:50.103Z,3112
2017-12-23T10:57:50.772Z,3020
2017-12-23T10:58:51.441Z,2796
2017-12-23T10:59:52.109Z,2560
2017-12-23T11:00:52.779Z,2532
2017-12-23T11:01:53.445Z,2660
2017-12-23T11:02:54.115Z,2408
2017-12-23T11:03:54.783Z,2544
2017-12-23T11:04:55.453Z,2476
2017-12-23T11:05:56.121Z,2396
2017-12-23T11:06:56.792Z,2392
2017-12-23T11:07:57.460Z,2576
2017-12-23T11:08:58.128Z,2800
2017-12-23T11:09:58.797Z,2664
2017-12-23T11:10:59.476Z,2360
2017-12-23T11:12:00.171Z,2060
2017-12-23T11:13:00.840Z,1908
2017-12-23T11:14:01.509Z,1752
2017-12-23T11:15:02.176Z,1472
2017-12-23T11:16:02.847Z,1308
2017-12-23T11:17:03.515Z,1228
2017-12-23T11:18:04.183Z,1208
2017-12-23T11:19:04.851Z,1240
2017-12-23T11:20:05.571Z,1248
2017-12-23T11:21:06.237Z,1020
2017-12-23T11:22:06.906Z,1308
2017-12-23T11:23:07.577Z,1240
2017-12-23T11:24:08.280Z,1224
2017-12-23T11:25:08.949Z,1280
2017-12-23T11:26:09.617Z,1300
2017-12-23T11:27:10.285Z,1488
2017-12-23T11:28:10.955Z,1440
2017-12-23T11:29:11.624Z,1428
2017-12-23T11:30:12.295Z,1456
2017-12-23T11:31:12.964Z,1520
2017-12-23T11:32:13.633Z,1480
2017-12-23T11:33:14.300Z,1888
2017-12-23T11:34:14.970Z,1948
2017-12-23T11:35:15.639Z,1488
2017-12-23T11:36:16.308Z,1424
2017-12-23T11:37:16.976Z,1668
2017-12-23T11:38:17.645Z,1728
2017-12-23T11:39:18.313Z,1920
2017-12-23T11:40:19.032Z,2024
2017-12-23T11:41:19.702Z,1888
2017-12-23T11:42:20.368Z,2176
2017-12-23T11:43:21.071Z,2068
2017-12-23T11:44:21.738Z,1808
2017-12-23T11:45:22.446Z,2092
2017-12-23T11:46:23.080Z,2076
2017-12-23T11:47:23.746Z,1904
2017-12-23T11:48:24.452Z,1864
2017-12-23T11:49:25.122Z,1688
2017-12-23T11:50:25.792Z,1692
2017-12-23T11:51:26.460Z,1908
2017-12-23T11:52:27.128Z,2176
2017-12-23T11:53:27.835Z,1988
2017-12-23T11:54:28.502Z,1752
2017-12-23T11:55:29.178Z,1768
2017-12-23T11:56:29.838Z,1860
2017-12-23T11:57:30.506Z,2080
2017-12-23T11:58:31.179Z,3108
2017-12-23T11:59:31.883Z,2596
2017-12-23T12:00:32.550Z,2560
2017-12-23T12:01:33.219Z,2420
2017-12-23T12:02:33.888Z,2332
2017-12-23T12:03:34.555Z,2412
2017-12-23T12:04:35.228Z,2536
2017-12-23T12:05:35.893Z,2700
2017-12-23T12:06:36.562Z,3088
2017-12-23T12:07:37.230Z,2724
2017-12-23T12:08:37.899Z,3516
2017-12-23T12:09:38.568Z,3636
2017-12-23T12:10:39.244Z,3116
2017-12-23T12:11:39.905Z,3452
2017-12-23T12:12:40.576Z,3228
2017-12-23T12:13:41.246Z,3004
2017-12-23T12:14:41.915Z,3536
2017-12-23T12:15:42.585Z,3144
2017-12-23T12:16:43.253Z,3312
2017-12-23T12:17:43.922Z,3844
2017-12-23T12:18:44.601Z,3252
2017-12-23T12:19:45.261Z,3012
2017-12-23T12:20:45.929Z,3116
2017-12-23T12:21:46.598Z,2836
2017-12-23T12:22:47.268Z,2928
2017-12-23T12:23:47.936Z,2732
2017-12-23T12:24:48.605Z,2872
2017-12-23T12:25:49.276Z,2748
2017-12-23T12:26:49.984Z,2928
2017-12-23T12:27:50.655Z,2324
2017-12-23T12:28:51.323Z,2232
2017-12-23T12:29:51.994Z,2364
2017-12-23T12:30:52.713Z,2272
2017-12-23T12:31:53.385Z,1992
2017-12-23T12:32:54.060Z,2120
2017-12-23T12:33:54.726Z,2756
2017-12-23T12:34:55.393Z,3064
2017-12-23T12:35:56.152Z,3600
2017-12-23T12:36:56.820Z,3744
2017-12-23T12:37:57.492Z,3964
2017-12-23T12:38:58.161Z,3652
2017-12-23T12:39:58.870Z,4164
2017-12-23T12:40:59.540Z,4244
2017-12-23T12:42:00.211Z,3916
2017-12-23T12:43:00.880Z,4272
2017-12-23T12:44:01.552Z,3996
2017-12-23T12:45:02.223Z,4044
2017-12-23T12:46:02.893Z,4192
2017-12-23T12:47:03.566Z,4292
2017-12-23T12:48:04.238Z,4132
2017-12-23T12:49:04.906Z,3960
2017-12-23T12:50:05.575Z,3500
2017-12-23T12:51:06.246Z,3240
2017-12-23T12:52:06.914Z,3308
2017-12-23T12:53:07.585Z,3408
2017-12-23T12:54:08.256Z,3392
2017-12-23T12:55:08.924Z,3056
2017-12-23T12:56:09.595Z,2996
2017-12-23T12:57:10.264Z,3376
2017-12-23T12:58:10.940Z,2884
2017-12-23T12:59:11.604Z,3208
2017-12-23T13:00:12.282Z,3296
2017-12-23T13:01:12.946Z,3304
2017-12-23T13:02:13.647Z,3588
2017-12-23T13:03:14.325Z,3472
2017-12-23T13:04:15.005Z,3392
2017-12-23T13:05:15.668Z,3408
2017-12-23T13:06:16.387Z,3096
2017-12-23T13:07:17.056Z,3156
2017-12-23T13:08:17.727Z,2700
2017-12-23T13:09:18.401Z,2820
2017-12-23T13:10:19.075Z,2268
2017-12-23T13:11:19.741Z,2072
2017-12-23T13:12:20.410Z,2048
2017-12-23T13:13:21.077Z,2392
2017-12-23T13:14:21.746Z,2304
2017-12-23T13:15:22.418Z,2056
2017-12-23T13:16:23.089Z,2420
2017-12-23T13:17:23.757Z,2292
2017-12-23T13:18:24.426Z,2180
2017-12-23T13:19:25.105Z,2240
2017-12-23T13:20:25.763Z,2224
2017-12-23T13:21:26.431Z,2036
2017-12-23T13:22:27.101Z,1776
2017-12-23T13:23:27.790Z,1924
2017-12-23T13:24:28.441Z,2316
2017-12-23T13:25:29.109Z,2188
2017-12-23T13:26:29.865Z,2260
2017-12-23T13:27:30.536Z,2188
2017-12-23T13:28:31.201Z,2256
2017-12-23T13:29:31.870Z,2280
2017-12-23T13:30:32.541Z,2268
2017-12-23T13:31:33.261Z,2048
2017-12-23T13:32:33.928Z,1944
2017-12-23T13:33:34.595Z,2024
2017-12-23T13:34:35.264Z,2092
2017-12-23T13:35:35.934Z,2360
2017-12-23T13:36:36.654Z,1984
2017-12-23T13:37:37.323Z,1564
2017-12-23T13:38:37.993Z,1576
2017-12-23T13:39:38.660Z,1608
2017-12-23T13:40:39.329Z,1588
2017-12-23T13:41:40.050Z,1492
2017-12-23T13:42:40.724Z,1484
2017-12-23T13:43:41.387Z,1640
2017-12-23T13:44:42.057Z,1804
2017-12-23T13:45:42.727Z,1580
2017-12-23T13:46:43.448Z,1724
2017-12-23T13:47:44.118Z,1636
2017-12-23T13:48:44.786Z,1588
2017-12-23T13:49:45.458Z,1596
2017-12-23T13:50:46.127Z,1708
2017-12-23T13:51:47.095Z,1636
2017-12-23T13:52:47.764Z,1564
2017-12-23T13:53:48.433Z,1584
2017-12-23T13:54:49.139Z,1560
2017-12-23T13:55:49.806Z,1472
2017-12-23T13:56:50.560Z,1376
2017-12-23T13:57:51.231Z,1348
2017-12-23T13:58:51.896Z,1304
2017-12-23T13:59:52.567Z,1312
2017-12-23T14:00:53.235Z,1240
2017-12-23T14:01:53.953Z,1252
2017-12-23T14:02:54.628Z,1256
2017-12-23T14:03:55.292Z,1208
2017-12-23T14:04:55.960Z,1108
2017-12-23T14:05:56.629Z,1196
2017-12-23T14:06:57.349Z,1204
2017-12-23T14:07:58.019Z,1124
2017-12-23T14:08:58.688Z,1052
2017-12-23T14:09:59.355Z,1004
2017-12-23T14:11:00.026Z,1092
2017-12-23T14:12:00.743Z,1088